Terminal Aerodrome Forecast
Issued by NWS

Home | Current Version | Previous Version | Text Only | Print | Product List | Glossary On
Versions: 1 2 3 4 5 6 7 8 9 10 11 12 13 14 15 16 17 18 19 20 21 22 23 24 25 26 27 28 29
267
FTUS43 KLOT 172057 AAB
TAFORD
TAF AMD
KORD 172057Z 1721/1824 24019G27KT P6SM FEW035 SCT110
     FM180100 26013G20KT P6SM BKN040
     FM180600 28012G16KT P6SM SCT040
     FM181500 29012G19KT P6SM SCT040=

USA.gov is the U.S. government's official web portal to all federal, state and local government web resources and services.